createdAt,value
2019-05-10T00:03:24.318Z,100.00
2019-05-10T00:06:15.574Z,100.00
2019-05-10T00:08:47.096Z,100.00
2019-05-10T00:11:39.757Z,100.00
2019-05-10T00:14:33.937Z,100.00
2019-05-10T00:17:12.016Z,100.00
2019-05-10T00:19:42.533Z,100.00
2019-05-10T00:22:15.146Z,100.00
2019-05-10T00:25:03.005Z,100.00
2019-05-10T00:27:25.997Z,100.00
2019-05-10T00:29:57.601Z,100.00
2019-05-10T00:32:30.520Z,100.00
2019-05-10T00:35:06.937Z,100.00
2019-05-10T00:37:41.362Z,100.00
2019-05-10T00:40:14.233Z,100.00
2019-05-10T00:42:44.986Z,100.00
2019-05-10T00:45:15.514Z,100.00
2019-05-10T00:47:46.084Z,100.00
2019-05-10T00:50:20.351Z,100.00
2019-05-10T00:52:51.137Z,100.00
2019-05-10T00:55:23.228Z,100.00
2019-05-10T00:57:53.773Z,100.00
2019-05-10T01:00:26.030Z,100.00
2019-05-10T01:02:56.545Z,100.00
2019-05-10T01:05:28.207Z,100.00
2019-05-10T01:08:09.105Z,100.00
2019-05-10T01:10:43.843Z,100.00
2019-05-10T01:13:14.703Z,100.00
2019-05-10T01:15:47.467Z,100.00
2019-05-10T01:18:17.998Z,100.00
2019-05-10T01:20:55.918Z,100.00
2019-05-10T01:23:26.494Z,100.00
2019-05-10T01:25:59.880Z,100.00
2019-05-10T01:28:30.416Z,100.00
2019-05-10T01:31:14.989Z,100.00
2019-05-10T01:33:40.716Z,100.00
2019-05-10T01:36:11.244Z,100.00
2019-05-10T01:38:41.745Z,100.00
2019-05-10T01:41:12.271Z,100.00
2019-05-10T01:43:43.988Z,100.00
2019-05-10T01:46:14.963Z,100.00
2019-05-10T01:48:45.530Z,100.00
2019-05-10T01:51:16.231Z,100.00
2019-05-10T01:53:46.770Z,100.00
2019-05-10T01:56:17.383Z,100.00
2019-05-10T01:58:47.912Z,100.00
2019-05-10T02:01:22.007Z,100.00
2019-05-10T02:03:52.541Z,100.00
2019-05-10T02:06:26.069Z,100.00
2019-05-10T02:08:56.595Z,100.00
2019-05-10T02:11:27.065Z,100.00
2019-05-10T02:13:57.894Z,100.00
2019-05-10T02:16:28.403Z,100.00
2019-05-10T02:18:58.934Z,100.00
2019-05-10T02:21:29.671Z,100.00
2019-05-10T02:24:02.470Z,100.00
2019-05-10T02:26:33.021Z,100.00
2019-05-10T02:29:37.016Z,100.00
2019-05-10T02:32:07.529Z,100.00
2019-05-10T02:34:38.406Z,100.00
2019-05-10T02:37:09.158Z,100.00
2019-05-10T02:39:39.667Z,100.00
2019-05-10T02:42:16.155Z,100.00
2019-05-10T02:44:46.665Z,100.00
2019-05-10T02:47:17.187Z,100.00
2019-05-10T02:49:47.773Z,100.00
2019-05-10T02:52:19.476Z,100.00
2019-05-10T02:54:50.431Z,100.00
2019-05-10T02:57:21.117Z,100.00
2019-05-10T02:59:51.635Z,100.00
2019-05-10T03:02:22.154Z,100.00
2019-05-10T03:04:52.705Z,100.00
2019-05-10T03:07:23.212Z,100.00
2019-05-10T03:09:57.311Z,100.00
2019-05-10T03:12:28.127Z,100.00
2019-05-10T03:14:58.945Z,100.00
2019-05-10T03:17:29.480Z,100.00
2019-05-10T03:20:00.732Z,100.00
2019-05-10T03:22:41.931Z,100.00
2019-05-10T03:25:13.007Z,100.00
2019-05-10T03:27:43.556Z,100.00
2019-05-10T03:30:14.269Z,100.00
2019-05-10T03:32:44.812Z,100.00
2019-05-10T03:35:15.717Z,100.00
2019-05-10T03:37:47.902Z,100.00
2019-05-10T03:40:18.399Z,100.00
2019-05-10T03:42:48.941Z,100.00
2019-05-10T03:45:20.105Z,100.00
2019-05-10T03:47:50.685Z,100.00
2019-05-10T03:50:22.272Z,100.00
2019-05-10T03:52:52.965Z,100.00
2019-05-10T03:55:23.731Z,100.00
2019-05-10T03:57:54.298Z,100.00
2019-05-10T04:00:24.821Z,100.00
2019-05-10T04:02:55.315Z,100.00
2019-05-10T04:05:27.232Z,100.00
2019-05-10T04:08:00.210Z,100.00
2019-05-10T04:10:30.792Z,100.00
2019-05-10T04:13:01.294Z,100.00
2019-05-10T04:15:31.797Z,100.00
2019-05-10T04:18:03.818Z,100.00
2019-05-10T04:20:34.284Z,100.00
2019-05-10T04:23:04.822Z,100.00
2019-05-10T04:25:35.335Z,100.00
2019-05-10T04:28:05.900Z,100.00
2019-05-10T04:30:36.449Z,100.00
2019-05-10T04:33:08.253Z,100.00
2019-05-10T04:35:39.194Z,100.00
2019-05-10T04:38:11.197Z,100.00
2019-05-10T04:40:41.725Z,100.00
2019-05-10T04:43:12.193Z,100.00
2019-05-10T04:45:42.735Z,100.00
2019-05-10T04:48:18.261Z,100.00
2019-05-10T04:50:49.639Z,100.00
2019-05-10T04:53:20.321Z,100.00
2019-05-10T04:55:54.080Z,100.00
2019-05-10T04:58:26.126Z,100.00
2019-05-10T05:00:59.137Z,100.00
2019-05-10T05:03:29.666Z,100.00
2019-05-10T05:06:01.979Z,100.00
2019-05-10T05:08:33.627Z,100.00
2019-05-10T05:11:06.953Z,100.00
2019-05-10T05:13:37.849Z,100.00
2019-05-10T05:16:32.737Z,100.00
2019-05-10T05:19:26.020Z,100.00
2019-05-10T05:22:06.117Z,100.00
2019-05-10T05:25:16.757Z,100.00
2019-05-10T05:31:40.046Z,100.00
2019-05-10T05:34:17.367Z,100.00
2019-05-10T05:37:14.924Z,100.00
2019-05-10T05:40:21.171Z,100.00
2019-05-10T05:42:57.674Z,100.00
2019-05-10T05:45:47.161Z,100.00
2019-05-10T05:48:42.521Z,100.00
2019-05-10T05:51:13.040Z,100.00
2019-05-10T05:53:47.146Z,100.00
2019-05-10T05:56:17.895Z,100.00
2019-05-10T05:58:48.756Z,100.00
2019-05-10T06:01:26.531Z,100.00
2019-05-10T06:04:00.141Z,100.00
2019-05-10T06:06:28.978Z,100.00
2019-05-10T06:12:02.260Z,100.00
2019-05-10T06:14:36.539Z,100.00
2019-05-10T06:17:07.456Z,100.00
2019-05-10T06:20:00.841Z,100.00
2019-05-10T06:22:38.051Z,100.00
2019-05-10T06:25:14.405Z,100.00
2019-05-10T06:28:26.926Z,100.00
2019-05-10T06:30:56.988Z,100.00
2019-05-10T06:33:29.344Z,100.00
2019-05-10T06:36:06.241Z,100.00
2019-05-10T06:38:36.939Z,100.00
2019-05-10T06:41:16.560Z,100.00
2019-05-10T06:43:45.954Z,100.00
2019-05-10T06:46:16.842Z,100.00
2019-05-10T06:48:53.035Z,100.00
2019-05-10T06:51:23.683Z,100.00
2019-05-10T06:53:54.186Z,96.24
2019-05-10T06:56:25.916Z,97.88
2019-05-10T06:59:12.007Z,99.11
2019-05-10T07:01:28.907Z,99.43
2019-05-10T07:03:59.679Z,99.88
2019-05-10T07:06:30.218Z,98.25
2019-05-10T07:09:00.750Z,97.38
2019-05-10T07:11:33.031Z,97.48
2019-05-10T07:14:06.131Z,95.51
2019-05-10T07:16:40.861Z,90.64
2019-05-10T07:19:12.769Z,87.56
2019-05-10T07:21:44.727Z,89.22
2019-05-10T07:24:18.141Z,88.16
2019-05-10T07:26:47.921Z,83.45
2019-05-10T07:29:29.615Z,80.42
2019-05-10T07:31:52.911Z,84.96
2019-05-10T07:34:23.678Z,80.25
2019-05-10T07:36:54.202Z,81.96
2019-05-10T07:39:24.854Z,77.89
2019-05-10T07:42:00.442Z,76.01
2019-05-10T07:44:30.775Z,76.39
2019-05-10T07:47:01.436Z,77.34
2019-05-10T07:49:34.335Z,77.30
2019-05-10T07:52:05.091Z,76.05
2019-05-10T07:54:37.643Z,73.65
2019-05-10T07:57:18.620Z,76.81
2019-05-10T07:59:57.459Z,79.25
2019-05-10T08:02:28.157Z,78.18
2019-05-10T08:04:58.910Z,79.09
2019-05-10T08:07:29.557Z,79.31
2019-05-10T08:10:00.150Z,78.93
2019-05-10T08:12:35.207Z,75.50
2019-05-10T08:15:03.154Z,73.66
2019-05-10T08:17:43.383Z,70.04
2019-05-10T08:20:33.185Z,68.04
2019-05-10T08:22:52.515Z,62.53
2019-05-10T08:25:34.847Z,62.04
2019-05-10T08:28:05.045Z,66.09
2019-05-10T08:30:58.177Z,65.49
2019-05-10T08:33:22.846Z,68.22
2019-05-10T08:36:00.561Z,66.58
2019-05-10T08:38:28.385Z,59.83
2019-05-10T08:41:02.512Z,59.65
2019-05-10T08:43:38.798Z,59.51
2019-05-10T08:46:08.311Z,55.44
2019-05-10T08:48:46.663Z,57.37
2019-05-10T08:51:12.585Z,58.29
2019-05-10T08:53:47.056Z,56.49
2019-05-10T08:56:23.438Z,57.18
2019-05-10T08:58:53.604Z,58.00
2019-05-10T09:01:30.415Z,56.33
2019-05-10T09:04:06.218Z,56.37
2019-05-10T09:06:35.256Z,57.75
2019-05-10T09:09:24.151Z,60.16
2019-05-10T09:12:12.350Z,55.07
2019-05-10T09:14:44.177Z,55.87
2019-05-10T09:17:23.787Z,57.59
2019-05-10T09:19:53.286Z,55.52
2019-05-10T09:22:32.538Z,54.04
2019-05-10T09:24:59.187Z,54.20
2019-05-10T09:27:31.308Z,55.61
2019-05-10T09:30:08.247Z,55.18
2019-05-10T09:32:39.942Z,55.09
2019-05-10T09:35:18.157Z,54.56
2019-05-10T09:37:54.125Z,55.15
2019-05-10T09:40:22.095Z,53.36
2019-05-10T09:45:52.845Z,50.91
2019-05-10T09:48:44.657Z,51.29
2019-05-10T09:51:33.800Z,49.47
2019-05-10T09:54:07.810Z,48.65
2019-05-10T09:56:44.356Z,47.56
2019-05-10T09:59:13.240Z,49.44
2019-05-10T10:01:44.431Z,49.81
2019-05-10T10:04:15.276Z,50.00
2019-05-10T10:06:48.339Z,49.11
2019-05-10T10:09:18.174Z,50.54
2019-05-10T10:11:57.770Z,51.62
2019-05-10T10:14:24.308Z,51.19
2019-05-10T10:17:02.996Z,47.52
2019-05-10T10:19:37.560Z,46.19
2019-05-10T10:22:11.087Z,47.90
2019-05-10T10:24:41.635Z,47.68
2019-05-10T10:27:17.158Z,48.70
2019-05-10T10:29:53.061Z,48.80
2019-05-10T10:32:33.152Z,50.63
2019-05-10T10:35:00.920Z,49.62
2019-05-10T10:37:31.529Z,49.17
2019-05-10T10:40:08.598Z,51.30
2019-05-10T10:42:38.766Z,50.94
2019-05-10T10:45:24.190Z,49.39
2019-05-10T10:47:57.415Z,49.11
2019-05-10T10:50:31.227Z,49.50
2019-05-10T10:53:01.798Z,46.91
2019-05-10T10:55:36.702Z,47.40
2019-05-10T10:58:13.450Z,45.92
2019-05-10T11:00:44.485Z,45.30
2019-05-10T11:03:15.114Z,45.06
2019-05-10T11:05:51.112Z,44.74
2019-05-10T11:08:21.961Z,45.55
2019-05-10T11:10:52.722Z,46.85
2019-05-10T11:13:41.482Z,46.74
2019-05-10T11:15:58.825Z,47.51
2019-05-10T11:18:32.796Z,50.47
2019-05-10T11:21:03.899Z,49.24
2019-05-10T11:23:39.046Z,46.55
2019-05-10T11:26:06.681Z,47.36
2019-05-10T11:28:43.480Z,47.52
2019-05-10T11:31:11.423Z,46.93
2019-05-10T11:33:47.177Z,46.39
2019-05-10T11:36:21.029Z,45.52
2019-05-10T11:38:53.592Z,47.34
2019-05-10T11:41:24.673Z,43.12
2019-05-10T11:43:57.968Z,44.12
2019-05-10T11:46:32.670Z,44.61
2019-05-10T11:49:04.381Z,44.46
2019-05-10T11:51:37.552Z,45.87
2019-05-10T11:54:11.792Z,45.72
2019-05-10T11:56:42.213Z,46.84
2019-05-10T11:59:16.562Z,47.12
2019-05-10T12:01:57.883Z,47.58
2019-05-10T12:04:36.391Z,47.23
2019-05-10T12:07:01.784Z,47.57
2019-05-10T12:09:34.732Z,49.71
2019-05-10T12:12:06.534Z,47.82
2019-05-10T12:14:43.664Z,48.21
2019-05-10T12:17:14.787Z,47.97
2019-05-10T12:19:50.424Z,48.84
2019-05-10T12:22:31.944Z,49.07
2019-05-10T12:25:19.798Z,47.23
2019-05-10T12:27:44.383Z,48.09
2019-05-10T12:30:11.632Z,46.72
2019-05-10T12:32:55.366Z,47.36
2019-05-10T12:35:14.271Z,47.91
2019-05-10T12:37:53.994Z,46.92
2019-05-10T12:40:24.178Z,47.76
2019-05-10T12:43:00.543Z,47.09
2019-05-10T12:45:34.323Z,47.95
2019-05-10T12:48:09.086Z,45.94
2019-05-10T12:50:46.776Z,46.63
2019-05-10T12:53:18.526Z,47.97
2019-05-10T12:55:50.293Z,48.51
2019-05-10T12:58:21.157Z,48.24
2019-05-10T13:00:53.380Z,48.95
2019-05-10T13:03:31.607Z,49.07
2019-05-10T13:05:59.192Z,49.89
2019-05-10T13:08:30.439Z,49.74
2019-05-10T13:11:03.685Z,50.47
2019-05-10T13:13:34.984Z,49.06
2019-05-10T13:16:11.768Z,50.11
2019-05-10T13:18:50.229Z,50.70
2019-05-10T13:21:20.903Z,51.50
2019-05-10T13:23:46.170Z,52.58
2019-05-10T13:26:16.617Z,53.38
2019-05-10T13:28:54.824Z,52.91
2019-05-10T13:31:29.213Z,52.97
2019-05-10T13:34:01.161Z,52.15
2019-05-10T13:36:37.063Z,52.96
2019-05-10T13:39:25.552Z,53.00
2019-05-10T13:41:57.162Z,52.15
2019-05-10T13:47:23.025Z,50.90
2019-05-10T13:49:55.398Z,51.35
2019-05-10T13:52:37.713Z,50.53
2019-05-10T13:55:08.030Z,50.13
2019-05-10T13:57:41.793Z,49.56
2019-05-10T14:00:20.821Z,49.37
2019-05-10T14:02:53.077Z,49.27
2019-05-10T14:05:28.279Z,49.47
2019-05-10T14:07:59.691Z,48.18
2019-05-10T14:10:33.118Z,45.53
2019-05-10T14:13:08.091Z,46.73
2019-05-10T14:15:38.601Z,45.74
2019-05-10T14:18:09.012Z,45.77
2019-05-10T14:20:39.442Z,47.63
2019-05-10T14:23:18.109Z,47.60
2019-05-10T14:25:48.954Z,47.68
2019-05-10T14:28:19.686Z,47.33
2019-05-10T14:30:56.980Z,47.16
2019-05-10T14:33:25.799Z,47.80
2019-05-10T14:36:01.102Z,45.48
2019-05-10T14:38:28.832Z,46.74
2019-05-10T14:41:13.332Z,47.71
2019-05-10T14:43:51.164Z,48.26
2019-05-10T14:46:23.198Z,48.00
2019-05-10T14:48:53.806Z,48.43
2019-05-10T14:51:40.330Z,47.88
2019-05-10T14:53:58.276Z,46.74
2019-05-10T14:56:54.069Z,46.99
2019-05-10T14:59:28.498Z,47.66
2019-05-10T15:01:59.248Z,47.49
2019-05-10T15:04:47.384Z,48.28
2019-05-10T15:07:08.575Z,47.50
2019-05-10T15:09:45.922Z,47.77
2019-05-10T15:12:29.854Z,48.88
2019-05-10T15:20:10.357Z,48.08
2019-05-10T15:22:47.511Z,47.63
2019-05-10T15:25:22.459Z,48.17
2019-05-10T15:27:54.597Z,49.84
2019-05-10T15:30:45.932Z,49.26
2019-05-10T15:33:19.819Z,49.54
2019-05-10T15:36:06.898Z,49.78
2019-05-10T15:38:50.097Z,50.57
2019-05-10T15:41:22.466Z,50.32
2019-05-10T15:43:53.409Z,50.17
2019-05-10T15:46:36.231Z,48.73
2019-05-10T15:49:06.395Z,48.84
2019-05-10T15:51:41.166Z,48.48
2019-05-10T15:54:11.868Z,49.43
2019-05-10T15:56:44.233Z,48.69
2019-05-10T15:59:19.452Z,49.14
2019-05-10T16:01:52.021Z,49.11
2019-05-10T16:04:22.150Z,50.27
2019-05-10T16:06:55.205Z,50.49
2019-05-10T16:09:28.399Z,51.06
2019-05-10T16:12:07.975Z,48.95
2019-05-10T16:14:59.705Z,50.76
2019-05-10T16:17:30.177Z,51.59
2019-05-10T16:20:04.088Z,50.74
2019-05-10T16:22:40.266Z,51.29
2019-05-10T16:25:13.234Z,51.91
2019-05-10T16:27:45.259Z,50.08
2019-05-10T16:30:20.109Z,49.80
2019-05-10T16:32:50.697Z,49.16
2019-05-10T16:35:22.182Z,48.21
2019-05-10T16:37:55.159Z,47.14
2019-05-10T16:40:27.155Z,47.63
2019-05-10T16:43:00.538Z,48.58
2019-05-10T16:45:32.802Z,48.47
2019-05-10T16:48:05.745Z,49.20
2019-05-10T16:50:39.104Z,49.92
2019-05-10T16:53:12.793Z,50.47
2019-05-10T16:55:48.780Z,49.93
2019-05-10T16:58:23.597Z,49.00
2019-05-10T17:00:54.034Z,50.35
2019-05-10T17:03:25.277Z,50.37
2019-05-10T17:06:04.068Z,50.02
2019-05-10T17:08:36.875Z,51.09
2019-05-10T17:11:10.130Z,52.68
2019-05-10T17:13:43.249Z,56.13
2019-05-10T17:16:17.091Z,55.17
2019-05-10T17:18:49.729Z,55.55
2019-05-10T17:21:21.302Z,57.91
2019-05-10T17:24:23.955Z,58.85
2019-05-10T17:26:52.331Z,59.40
2019-05-10T17:29:23.220Z,58.93
2019-05-10T17:31:59.852Z,57.67
2019-05-10T17:34:36.795Z,59.73
2019-05-10T17:37:11.833Z,61.21
2019-05-10T17:39:46.107Z,63.70
2019-05-10T17:42:21.155Z,66.39
2019-05-10T17:45:01.855Z,65.97
2019-05-10T17:47:33.842Z,66.68
2019-05-10T17:50:05.638Z,67.88
2019-05-10T17:52:36.062Z,68.76
2019-05-10T17:55:10.821Z,69.05
2019-05-10T17:57:41.998Z,69.47
2019-05-10T18:00:12.462Z,69.65
2019-05-10T18:02:45.646Z,69.74
2019-05-10T18:05:23.679Z,70.61
2019-05-10T18:07:54.353Z,72.20
2019-05-10T18:10:25.111Z,72.95
2019-05-10T18:13:03.177Z,73.69
2019-05-10T18:15:32.843Z,71.09
2019-05-10T18:18:04.409Z,74.02
2019-05-10T18:20:42.001Z,73.74
2019-05-10T18:23:07.356Z,75.14
2019-05-10T18:25:38.094Z,74.77
2019-05-10T18:28:08.540Z,75.02
2019-05-10T18:30:41.763Z,75.70
2019-05-10T18:33:14.113Z,76.65
2019-05-10T18:35:47.503Z,76.55
2019-05-10T18:38:22.349Z,77.23
2019-05-10T18:40:53.308Z,78.06
2019-05-10T18:43:25.974Z,78.73
2019-05-10T18:46:03.027Z,79.01
2019-05-10T18:48:40.956Z,79.42
2019-05-10T18:51:12.279Z,78.27
2019-05-10T18:53:46.445Z,79.75
2019-05-10T18:56:33.221Z,78.76
2019-05-10T18:59:07.374Z,79.52
2019-05-10T19:01:40.679Z,80.96
2019-05-10T19:04:58.795Z,81.38
2019-05-10T19:08:04.395Z,82.10
2019-05-10T19:10:33.130Z,82.22
2019-05-10T19:13:10.131Z,82.48
2019-05-10T19:15:46.255Z,80.27
2019-05-10T19:18:17.884Z,82.91
2019-05-10T19:20:52.862Z,83.90
2019-05-10T19:23:21.645Z,83.25
2019-05-10T19:25:56.653Z,85.61
2019-05-10T19:28:36.019Z,85.94
2019-05-10T19:31:08.223Z,83.65
2019-05-10T19:33:39.987Z,85.42
2019-05-10T19:36:17.082Z,86.35
2019-05-10T19:38:49.023Z,87.79
2019-05-10T19:41:25.707Z,88.29
2019-05-10T19:44:02.687Z,87.77
2019-05-10T19:46:39.307Z,88.89
2019-05-10T19:49:12.701Z,88.25
2019-05-10T19:51:42.125Z,87.68
2019-05-10T19:54:13.633Z,88.71
2019-05-10T19:56:49.514Z,89.40
2019-05-10T19:59:23.825Z,88.93
2019-05-10T20:01:54.298Z,88.43
2019-05-10T20:04:29.196Z,88.56
2019-05-10T20:07:01.127Z,88.70
2019-05-10T20:09:59.458Z,89.04
2019-05-10T20:12:35.640Z,89.25
2019-05-10T20:15:12.787Z,89.73
2019-05-10T20:17:49.097Z,89.91
2019-05-10T20:20:19.210Z,89.55
2019-05-10T20:22:51.968Z,89.89
2019-05-10T20:25:35.420Z,90.10
2019-05-10T20:28:06.668Z,90.04
2019-05-10T20:30:49.897Z,89.62
2019-05-10T20:33:20.730Z,89.76
2019-05-10T20:36:02.110Z,89.80
2019-05-10T20:38:32.568Z,90.19
2019-05-10T20:41:05.754Z,90.56
2019-05-10T20:43:38.085Z,90.75
2019-05-10T20:46:12.872Z,91.25
2019-05-10T20:48:45.031Z,92.52
2019-05-10T20:51:19.912Z,92.63
2019-05-10T20:53:53.521Z,92.86
2019-05-10T20:56:27.201Z,94.09
2019-05-10T20:59:06.250Z,95.73
2019-05-10T21:01:37.080Z,94.55
2019-05-10T21:04:07.787Z,94.25
2019-05-10T21:09:38.973Z,94.98
2019-05-10T21:12:09.756Z,95.52
2019-05-10T21:14:55.667Z,94.02
2019-05-10T21:20:18.241Z,94.31
2019-05-10T21:23:01.800Z,95.08
2019-05-10T21:25:44.625Z,94.49
2019-05-10T21:28:18.765Z,95.70
2019-05-10T21:31:05.268Z,96.19
2019-05-10T21:33:38.903Z,96.46
2019-05-10T21:36:11.030Z,97.15
2019-05-10T21:39:00.697Z,96.91
2019-05-10T21:41:32.190Z,96.61
2019-05-10T21:44:02.693Z,96.69
2019-05-10T21:46:38.012Z,96.74
2019-05-10T21:49:08.754Z,96.59
2019-05-10T21:51:39.265Z,96.33
2019-05-10T21:54:20.105Z,98.96
2019-05-10T21:56:53.085Z,96.71
2019-05-10T21:59:24.165Z,96.86
2019-05-10T22:01:55.616Z,96.36
2019-05-10T22:04:26.098Z,95.57
2019-05-10T22:06:59.097Z,96.15
2019-05-10T22:09:31.332Z,96.71
2019-05-10T22:12:04.848Z,96.58
2019-05-10T22:14:35.282Z,97.16
2019-05-10T22:17:05.810Z,98.26
2019-05-10T22:19:36.238Z,98.83
2019-05-10T22:22:06.986Z,98.29
2019-05-10T22:24:37.409Z,98.93
2019-05-10T22:27:08.953Z,97.31
2019-05-10T22:29:44.217Z,98.29
2019-05-10T22:32:14.775Z,98.47
2019-05-10T22:35:01.728Z,99.42
2019-05-10T22:37:42.449Z,100.00
2019-05-10T22:40:19.947Z,99.17
2019-05-10T22:42:52.963Z,99.44
2019-05-10T22:45:24.498Z,100.00
2019-05-10T22:47:55.240Z,99.72
2019-05-10T22:50:41.814Z,99.37
2019-05-10T22:53:13.837Z,99.71
2019-05-10T22:55:44.331Z,99.55
2019-05-10T22:58:17.158Z,99.87
2019-05-10T23:00:50.684Z,99.51
2019-05-10T23:03:27.910Z,99.35
2019-05-10T23:06:07.867Z,99.52
2019-05-10T23:08:38.456Z,99.39
2019-05-10T23:11:12.022Z,98.96
2019-05-10T23:13:43.555Z,98.84
2019-05-10T23:16:21.777Z,99.17
2019-05-10T23:18:53.455Z,99.26
2019-05-10T23:21:25.799Z,99.18
2019-05-10T23:23:56.211Z,99.14
2019-05-10T23:26:29.907Z,98.72
2019-05-10T23:29:00.907Z,98.59
2019-05-10T23:31:35.291Z,98.10
2019-05-10T23:34:06.580Z,98.08
2019-05-10T23:36:36.333Z,98.10
2019-05-10T23:39:08.504Z,97.98
2019-05-10T23:41:39.578Z,98.22
2019-05-10T23:44:13.396Z,98.44
2019-05-10T23:46:44.352Z,98.44
2019-05-10T23:49:18.008Z,98.54
2019-05-10T23:51:48.864Z,99.53
2019-05-10T23:54:19.245Z,99.70
2019-05-10T23:56:52.014Z,99.38
2019-05-10T23:59:24.083Z,99.26
